^^
Station Historical Data
Daily Summary for February 13, 2018 Units:  English    Metric   Both
« Previous Day
Next Day »
Daily Weekly Monthly Yearly Custom
  High: Low: Average:
Temperature: 29.2 °F 4.2 °F 16 °F
Dew Point: 17.6 °F 0.9 °F 9.1 °F
Humidity: 86% 60% 75%
Wind Speed: 8.0mph 0.0mph 4.8mph
Wind Gust: 13.0mph - -
Wind- - SW
Pressure: 30.40 in 29.80 in -
Precipitation: 0.00 in    
Historical Graphs
 
 
Tabular Data for February 13, 2018
Time Temperature Dew Point Pressure Wind Wind Speed Wind Gust Humidity Rainfall Rate (Hourly) solar Conditions
00:03 6.8 °F 3.5 °F 30.40 in SSE 5.0 mph 7.0 mph 86% 0.00 in 0 W/m2
00:08 7.0 °F 3.7 °F 30.40 in South 4.0 mph 6.0 mph 86% 0.00 in 0 W/m2
00:13 7.1 °F 3.8 °F 30.40 in South 5.0 mph 8.0 mph 86% 0.00 in 0 W/m2
00:18 7.3 °F 3.7 °F 30.40 in South 4.0 mph 8.0 mph 85% 0.00 in 0 W/m2
00:23 7.3 °F 3.7 °F 30.39 in South 5.0 mph 7.0 mph 85% 0.00 in 0 W/m2
00:28 7.3 °F 3.7 °F 30.39 in South 4.0 mph 7.0 mph 85% 0.00 in 0 W/m2
00:33 7.2 °F 3.6 °F 30.39 in South 4.0 mph 7.0 mph 85% 0.00 in 0 W/m2
00:38 7.0 °F 3.4 °F 30.38 in SSE 4.0 mph 7.0 mph 85% 0.00 in 0 W/m2
00:43 7.0 °F 3.4 °F 30.38 in SSE 5.0 mph 6.0 mph 85% 0.00 in 0 W/m2
00:48 7.1 °F 3.5 °F 30.37 in South 5.0 mph 6.0 mph 85% 0.00 in 0 W/m2
00:53 7.3 °F 3.7 °F 30.37 in South 5.0 mph 9.0 mph 85% 0.00 in 0 W/m2
00:58 7.4 °F 3.8 °F 30.37 in SSE 6.0 mph 9.0 mph 85% 0.00 in 0 W/m2
01:03 7.6 °F 4.0 °F 30.37 in South 4.0 mph 7.0 mph 85% 0.00 in 0 W/m2
01:08 7.7 °F 3.9 °F 30.36 in South 4.0 mph 6.0 mph 84% 0.00 in 0 W/m2
01:13 7.7 °F 3.9 °F 30.36 in South 4.0 mph 7.0 mph 84% 0.00 in 0 W/m2
01:18 7.7 °F 3.9 °F 30.35 in South 4.0 mph 7.0 mph 84% 0.00 in 0 W/m2
01:23 7.8 °F 4.0 °F 30.35 in SSW 6.0 mph 7.0 mph 84% 0.00 in 0 W/m2
01:28 7.7 °F 3.9 °F 30.35 in South 4.0 mph 8.0 mph 84% 0.00 in 0 W/m2
01:33 7.7 °F 3.9 °F 30.35 in South 5.0 mph 8.0 mph 84% 0.00 in 0 W/m2
01:38 7.7 °F 3.9 °F 30.34 in SSW 4.0 mph 7.0 mph 84% 0.00 in 0 W/m2
01:43 7.7 °F 3.9 °F 30.33 in SSW 5.0 mph 9.0 mph 84% 0.00 in 0 W/m2
01:48 7.5 °F 3.7 °F 30.33 in South 5.0 mph 9.0 mph 84% 0.00 in 0 W/m2
01:53 7.1 °F 3.3 °F 30.33 in SSW 5.0 mph 5.0 mph 84% 0.00 in 0 W/m2
01:58 6.8 °F 3.0 °F 30.33 in SSW 4.0 mph 5.0 mph 84% 0.00 in 0 W/m2
02:03 6.4 °F 2.6 °F 30.33 in SSW 4.0 mph 5.0 mph 84% 0.00 in 0 W/m2
02:09 6.1 °F 2.3 °F 30.33 in SSW 3.0 mph 5.0 mph 84% 0.00 in 0 W/m2
02:14 6.0 °F 2.2 °F 30.32 in SSW 4.0 mph 5.0 mph 84% 0.00 in 0 W/m2
02:19 5.8 °F 2.0 °F 30.32 in SSW 4.0 mph 5.0 mph 84% 0.00 in 0 W/m2
02:24 5.5 °F 1.7 °F 30.31 in SSW 4.0 mph 5.0 mph 84% 0.00 in 0 W/m2
02:29 5.4 °F 1.6 °F 30.31 in South 5.0 mph 5.0 mph 84% 0.00 in 0 W/m2
02:34 5.2 °F 1.4 °F 30.31 in South 3.0 mph 5.0 mph 84% 0.00 in 0 W/m2
02:39 5.2 °F 1.7 °F 30.29 in South 6.0 mph 6.0 mph 85% 0.00 in 0 W/m2
02:44 5.1 °F 1.6 °F 30.29 in South 4.0 mph 7.0 mph 85% 0.00 in 0 W/m2
02:49 5.2 °F 1.7 °F 30.29 in South 5.0 mph 9.0 mph 85% 0.00 in 0 W/m2
02:54 5.4 °F 1.9 °F 30.28 in South 5.0 mph 9.0 mph 85% 0.00 in 0 W/m2
02:59 5.4 °F 1.9 °F 30.28 in South 4.0 mph 7.0 mph 85% 0.00 in 0 W/m2
03:04 5.4 °F 1.9 °F 30.27 in SSW 5.0 mph 7.0 mph 85% 0.00 in 0 W/m2
03:09 5.4 °F 1.9 °F 30.27 in SSW 4.0 mph 7.0 mph 85% 0.00 in 0 W/m2
03:14 5.4 °F 1.9 °F 30.26 in SSW 7.0 mph 8.0 mph 85% 0.00 in 0 W/m2
03:19 5.5 °F 2.0 °F 30.27 in SSW 7.0 mph 8.0 mph 85% 0.00 in 0 W/m2
03:24 5.5 °F 2.0 °F 30.26 in SSW 5.0 mph 9.0 mph 85% 0.00 in 0 W/m2
03:29 5.4 °F 1.9 °F 30.26 in SSW 6.0 mph 9.0 mph 85% 0.00 in 0 W/m2
03:34 5.2 °F 1.7 °F 30.25 in South 5.0 mph 7.0 mph 85% 0.00 in 0 W/m2
03:39 5.3 °F 1.8 °F 30.25 in SSW 6.0 mph 8.0 mph 85% 0.00 in 0 W/m2
03:44 5.3 °F 1.8 °F 30.24 in SSW 5.0 mph 8.0 mph 85% 0.00 in 0 W/m2
03:49 5.3 °F 1.8 °F 30.24 in South 4.0 mph 7.0 mph 85% 0.00 in 0 W/m2
03:54 5.2 °F 1.7 °F 30.24 in SSW 5.0 mph 7.0 mph 85% 0.00 in 0 W/m2
03:59 5.1 °F 1.6 °F 30.24 in South 5.0 mph 7.0 mph 85% 0.00 in 0 W/m2
04:04 5.2 °F 1.7 °F 30.23 in SSW 5.0 mph 7.0 mph 85% 0.00 in 0 W/m2
04:09 5.4 °F 1.9 °F 30.21 in SSW 6.0 mph 8.0 mph 85% 0.00 in 0 W/m2
04:14 5.5 °F 2.0 °F 30.21 in SSW 4.0 mph 8.0 mph 85% 0.00 in 0 W/m2
04:19 5.7 °F 2.2 °F 30.21 in SSW 7.0 mph 9.0 mph 85% 0.00 in 0 W/m2
04:24 5.8 °F 2.3 °F 30.21 in SSW 6.0 mph 9.0 mph 85% 0.00 in 0 W/m2
04:29 5.8 °F 2.3 °F 30.21 in SSW 5.0 mph 9.0 mph 85% 0.00 in 0 W/m2
04:34 5.7 °F 2.2 °F 30.21 in SSW 5.0 mph 8.0 mph 85% 0.00 in 0 W/m2
04:39 5.6 °F 2.1 °F 30.21 in SSW 4.0 mph 7.0 mph 85% 0.00 in 0 W/m2
04:44 5.5 °F 2.0 °F 30.21 in SSW 5.0 mph 7.0 mph 85% 0.00 in 0 W/m2
04:49 5.2 °F 1.7 °F 30.20 in SSW 5.0 mph 6.0 mph 85% 0.00 in 0 W/m2
04:54 5.1 °F 1.6 °F 30.21 in SSW 4.0 mph 6.0 mph 85% 0.00 in 0 W/m2
04:59 5.2 °F 1.7 °F 30.20 in SSW 5.0 mph 7.0 mph 85% 0.00 in 0 W/m2
05:04 5.2 °F 1.7 °F 30.20 in SSW 4.0 mph 7.0 mph 85% 0.00 in 0 W/m2
05:09 5.4 °F 2.1 °F 30.20 in SSW 6.0 mph 6.0 mph 86% 0.00 in 0 W/m2
05:14 5.4 °F 2.1 °F 30.19 in SSW 4.0 mph 7.0 mph 86% 0.00 in 0 W/m2
05:19 5.4 °F 2.1 °F 30.19 in SSW 5.0 mph 7.0 mph 86% 0.00 in 0 W/m2
05:24 5.5 °F 2.2 °F 30.18 in SSW 6.0 mph 7.0 mph 86% 0.00 in 0 W/m2
05:29 5.5 °F 2.0 °F 30.19 in SSW 4.0 mph 7.0 mph 85% 0.00 in 0 W/m2
05:34 5.4 °F 1.9 °F 30.19 in SSW 4.0 mph 6.0 mph 85% 0.00 in 0 W/m2
05:39 5.1 °F 1.6 °F 30.18 in SSW 5.0 mph 6.0 mph 85% 0.00 in 0 W/m2
05:44 5.1 °F 1.8 °F 30.18 in SSW 4.0 mph 6.0 mph 86% 0.00 in 0 W/m2
05:49 5.1 °F 1.6 °F 30.17 in SSW 4.0 mph 6.0 mph 85% 0.00 in 0 W/m2
05:54 5.0 °F 1.5 °F 30.17 in SSW 2.0 mph 5.0 mph 85% 0.00 in 0 W/m2
05:59 4.8 °F 1.3 °F 30.17 in Calm   5.0 mph 85% 0.00 in 0 W/m2
06:04 4.6 °F 1.1 °F 30.17 in SSW 3.0 mph 5.0 mph 85% 0.00 in 0 W/m2
06:09 4.4 °F 0.9 °F 30.16 in SSW 4.0 mph 5.0 mph 85% 0.00 in 0 W/m2
06:14 4.4 °F 1.1 °F 30.16 in Calm   5.0 mph 86% 0.00 in 0 W/m2
06:19 4.5 °F 1.2 °F 30.16 in South 2.0 mph 5.0 mph 86% 0.00 in 0 W/m2
06:24 4.5 °F 1.2 °F 30.16 in SSW 3.0 mph 5.0 mph 86% 0.00 in 0 W/m2
06:29 4.4 °F 1.1 °F 30.15 in SSW 6.0 mph 7.0 mph 86% 0.00 in 0 W/m2
06:34 4.4 °F 1.1 °F 30.15 in SSW 3.0 mph 7.0 mph 86% 0.00 in 0 W/m2
06:39 4.3 °F 1.0 °F 30.15 in SSW 5.0 mph 6.0 mph 86% 0.00 in 0 W/m2
06:44 4.2 °F 0.9 °F 30.14 in SSW 4.0 mph 6.0 mph 86% 0.00 in 0 W/m2
06:49 4.4 °F 1.1 °F 30.14 in SW 5.0 mph 7.0 mph 86% 0.00 in 0 W/m2
06:54 4.6 °F 1.3 °F 30.13 in SW 4.0 mph 7.0 mph 86% 0.00 in 0 W/m2
06:59 4.7 °F 1.4 °F 30.13 in SSW 4.0 mph 7.0 mph 86% 0.00 in 0 W/m2
07:04 4.7 °F 1.4 °F 30.14 in SW 5.0 mph 7.0 mph 86% 0.00 in 0 W/m2
07:09 4.7 °F 1.4 °F 30.13 in SSW 5.0 mph 7.0 mph 86% 0.00 in 0 W/m2
07:14 4.6 °F 1.3 °F 30.13 in SSW 7.0 mph 7.0 mph 86% 0.00 in 0 W/m2
07:19 4.5 °F 1.2 °F 30.13 in SW 3.0 mph 7.0 mph 86% 0.00 in 0 W/m2
07:24 4.5 °F 1.2 °F 30.13 in SSW 4.0 mph 7.0 mph 86% 0.00 in 0 W/m2
07:29 4.5 °F 1.2 °F 30.12 in South 3.0 mph 7.0 mph 86% 0.00 in 0 W/m2
07:34 4.5 °F 1.2 °F 30.12 in SSW 4.0 mph 6.0 mph 86% 0.00 in 0 W/m2
07:39 4.6 °F 1.3 °F 30.11 in SSW 4.0 mph 7.0 mph 86% 0.00 in 0 W/m2
07:44 4.8 °F 1.5 °F 30.12 in South 4.0 mph 7.0 mph 86% 0.00 in 5 W/m2
07:49 4.9 °F 1.6 °F 30.11 in SSW 4.0 mph 8.0 mph 86% 0.00 in 7 W/m2
07:54 5.0 °F 1.7 °F 30.11 in SSW 4.0 mph 8.0 mph 86% 0.00 in 9 W/m2
07:59 5.0 °F 1.7 °F 30.11 in SSW 5.0 mph 8.0 mph 86% 0.00 in 12 W/m2
08:04 5.1 °F 1.8 °F 30.10 in SSW 7.0 mph 7.0 mph 86% 0.00 in 14 W/m2
08:09 5.2 °F 1.9 °F 30.10 in SW 6.0 mph 7.0 mph 86% 0.00 in 18 W/m2
08:14 5.5 °F 2.2 °F 30.10 in SSW 4.0 mph 9.0 mph 86% 0.00 in 19 W/m2
08:19 5.7 °F 2.4 °F 30.10 in SW 7.0 mph 9.0 mph 86% 0.00 in 23 W/m2
08:24 6.0 °F 2.7 °F 30.09 in SSW 6.0 mph 8.0 mph 86% 0.00 in 30 W/m2
08:29 6.4 °F 3.1 °F 30.09 in SSW 6.0 mph 8.0 mph 86% 0.00 in 39 W/m2
08:34 6.6 °F 3.0 °F 30.09 in SW 5.0 mph 9.0 mph 85% 0.00 in 49 W/m2
08:39 6.8 °F 3.2 °F 30.08 in SSW 5.0 mph 11.0 mph 85% 0.00 in 62 W/m2
08:44 6.9 °F 3.3 °F 30.08 in SSW 7.0 mph 11.0 mph 85% 0.00 in 76 W/m2
08:49 7.2 °F 3.6 °F 30.08 in SSW 5.0 mph 9.0 mph 85% 0.00 in 88 W/m2
08:54 7.4 °F 3.6 °F 30.07 in SSW 6.0 mph 9.0 mph 84% 0.00 in 97 W/m2
08:59 7.6 °F 3.8 °F 30.08 in SSW 6.0 mph 10.0 mph 84% 0.00 in 107 W/m2
09:04 7.8 °F 4.0 °F 30.07 in SSW 4.0 mph 10.0 mph 84% 0.00 in 114 W/m2
09:09 7.9 °F 3.8 °F 30.07 in SSW 6.0 mph 8.0 mph 83% 0.00 in 118 W/m2
09:14 7.9 °F 3.8 °F 30.07 in SSW 5.0 mph 8.0 mph 83% 0.00 in 121 W/m2
09:19 8.0 °F 3.9 °F 30.06 in South 5.0 mph 8.0 mph 83% 0.00 in 127 W/m2
09:24 8.0 °F 3.6 °F 30.06 in SSW 3.0 mph 9.0 mph 82% 0.00 in 174 W/m2
09:29 8.1 °F 3.7 °F 30.06 in SSW 5.0 mph 9.0 mph 82% 0.00 in 174 W/m2
09:34 8.2 °F 3.8 °F 30.06 in SSW 6.0 mph 7.0 mph 82% 0.00 in 192 W/m2
09:39 8.3 °F 3.9 °F 30.07 in SSW 2.0 mph 7.0 mph 82% 0.00 in 199 W/m2
09:44 8.6 °F 4.2 °F 30.06 in South 6.0 mph 7.0 mph 82% 0.00 in 213 W/m2
09:49 8.7 °F 4.1 °F 30.06 in SSW 3.0 mph 7.0 mph 81% 0.00 in 236 W/m2
09:54 9.0 °F 4.4 °F 30.06 in SSW 6.0 mph 7.0 mph 81% 0.00 in 262 W/m2
09:59 9.1 °F 4.5 °F 30.06 in SSW 4.0 mph 8.0 mph 81% 0.00 in 292 W/m2
10:04 9.2 °F 4.6 °F 30.04 in SSW 7.0 mph 8.0 mph 81% 0.00 in 320 W/m2
10:09 9.4 °F 4.7 °F 30.04 in SW 4.0 mph 9.0 mph 81% 0.00 in 332 W/m2
10:14 9.9 °F 5.2 °F 30.04 in SSW 6.0 mph 9.0 mph 81% 0.00 in 345 W/m2
10:19 10.3 °F 5.4 °F 30.04 in SW 5.0 mph 7.0 mph 80% 0.00 in 359 W/m2
10:24 10.4 °F 5.2 °F 30.04 in SW 3.0 mph 7.0 mph 79% 0.00 in 369 W/m2
10:29 10.7 °F 5.5 °F 30.04 in SW 4.0 mph 11.0 mph 79% 0.00 in 381 W/m2
10:34 11.0 °F 5.8 °F 30.03 in South 5.0 mph 11.0 mph 79% 0.00 in 390 W/m2
10:39 11.3 °F 5.8 °F 30.02 in SSW 4.0 mph 8.0 mph 78% 0.00 in 399 W/m2
10:44 11.4 °F 5.9 °F 30.02 in SW 3.0 mph 8.0 mph 78% 0.00 in 408 W/m2
10:49 11.7 °F 6.2 °F 30.02 in SW 4.0 mph 7.0 mph 78% 0.00 in 417 W/m2
10:54 12.1 °F 6.6 °F 30.01 in SSW 5.0 mph 7.0 mph 78% 0.00 in 424 W/m2
10:59 12.3 °F 6.5 °F 30.01 in SW 6.0 mph 7.0 mph 77% 0.00 in 434 W/m2
11:04 12.5 °F 6.7 °F 30.01 in SW 4.0 mph 9.0 mph 77% 0.00 in 443 W/m2
11:09 12.8 °F 6.7 °F 30.01 in SSW 4.0 mph 9.0 mph 76% 0.00 in 452 W/m2
11:14 13.3 °F 7.1 °F 30.00 in SW 5.0 mph 8.0 mph 76% 0.00 in 461 W/m2
11:19 14.0 °F 7.5 °F 30.00 in SSW 4.0 mph 7.0 mph 75% 0.00 in 469 W/m2
11:24 14.3 °F 7.5 °F 30.00 in SSW 3.0 mph 9.0 mph 74% 0.00 in 476 W/m2
11:29 14.7 °F 7.9 °F 30.01 in South 4.0 mph 9.0 mph 74% 0.00 in 483 W/m2
11:34 15.2 °F 8.1 °F 30.01 in SW 3.0 mph 7.0 mph 73% 0.00 in 490 W/m2
11:39 15.1 °F 7.7 °F 30.01 in SSW 4.0 mph 7.0 mph 72% 0.00 in 496 W/m2
11:44 15.0 °F 7.6 °F 30.00 in SW 5.0 mph 7.0 mph 72% 0.00 in 501 W/m2
11:49 15.4 °F 8.3 °F 30.00 in SW 4.0 mph 7.0 mph 73% 0.00 in 508 W/m2
11:54 15.5 °F 8.4 °F 30.00 in SW 4.0 mph 9.0 mph 73% 0.00 in 512 W/m2
11:59 16.0 °F 8.6 °F 30.00 in SW 4.0 mph 9.0 mph 72% 0.00 in 515 W/m2
12:04 16.2 °F 8.4 °F 29.99 in SSW 5.0 mph 7.0 mph 71% 0.00 in 520 W/m2
12:09 16.3 °F 8.5 °F 29.99 in SSW 7.0 mph 7.0 mph 71% 0.00 in 527 W/m2
12:14 16.5 °F 8.7 °F 29.98 in SW 5.0 mph 8.0 mph 71% 0.00 in 529 W/m2
12:19 16.9 °F 9.1 °F 29.98 in SSW 5.0 mph 8.0 mph 71% 0.00 in 534 W/m2
12:24 17.3 °F 9.5 °F 29.97 in SW 7.0 mph 9.0 mph 71% 0.00 in 536 W/m2
12:29 17.6 °F 9.5 °F 29.97 in SSW 6.0 mph 10.0 mph 70% 0.00 in 540 W/m2
12:34 17.9 °F 9.8 °F 29.97 in SW 6.0 mph 10.0 mph 70% 0.00 in 545 W/m2
12:39 18.2 °F 9.7 °F 29.97 in SW 6.0 mph 8.0 mph 69% 0.00 in 547 W/m2
12:44 18.7 °F 10.2 °F 29.97 in WSW 4.0 mph 8.0 mph 69% 0.00 in 547 W/m2
12:49 19.2 °F 10.7 °F 29.96 in SW 4.0 mph 8.0 mph 69% 0.00 in 547 W/m2
12:54 19.6 °F 10.7 °F 29.96 in SW 4.0 mph 8.0 mph 68% 0.00 in 548 W/m2
12:59 19.9 °F 10.4 °F 29.96 in SW 6.0 mph 10.0 mph 66% 0.00 in 548 W/m2
13:04 20.1 °F 10.9 °F 29.95 in SW 6.0 mph 10.0 mph 67% 0.00 in 548 W/m2
13:09 20.4 °F 11.2 °F 29.95 in SW 5.0 mph 9.0 mph 67% 0.00 in 548 W/m2
13:14 20.2 °F 10.6 °F 29.94 in SW 5.0 mph 9.0 mph 66% 0.00 in 548 W/m2
13:19 20.3 °F 11.1 °F 29.94 in SSW 5.0 mph 9.0 mph 67% 0.00 in 548 W/m2
13:24 20.7 °F 11.1 °F 29.94 in SW 6.0 mph 9.0 mph 66% 0.00 in 548 W/m2
13:29 21.0 °F 11.8 °F 29.93 in SSW 7.0 mph 9.0 mph 67% 0.00 in 547 W/m2
13:34 21.2 °F 11.6 °F 29.93 in SW 6.0 mph 13.0 mph 66% 0.00 in 499 W/m2
13:39 21.3 °F 11.7 °F 29.93 in SW 6.0 mph 13.0 mph 66% 0.00 in 527 W/m2
13:44 21.5 °F 11.9 °F 29.93 in SW 4.0 mph 7.0 mph 66% 0.00 in 533 W/m2
13:49 21.8 °F 12.2 °F 29.93 in SW 4.0 mph 7.0 mph 66% 0.00 in 531 W/m2
13:54 22.0 °F 12.4 °F 29.93 in SW 6.0 mph 7.0 mph 66% 0.00 in 527 W/m2
13:59 22.3 °F 12.7 °F 29.93 in SSW 7.0 mph 8.0 mph 66% 0.00 in 524 W/m2
14:04 22.5 °F 12.8 °F 29.92 in SW 5.0 mph 8.0 mph 66% 0.00 in 519 W/m2
14:09 23.1 °F 13.1 °F 29.92 in SW 5.0 mph 7.0 mph 65% 0.00 in 513 W/m2
14:14 23.5 °F 13.5 °F 29.91 in SW 4.0 mph 7.0 mph 65% 0.00 in 506 W/m2
14:19 24.0 °F 13.9 °F 29.91 in SSW 2.0 mph 8.0 mph 65% 0.00 in 499 W/m2
14:24 24.4 °F 14.0 °F 29.90 in SSW 4.0 mph 8.0 mph 64% 0.00 in 496 W/m2
14:29 24.6 °F 14.1 °F 29.90 in SW 6.0 mph 7.0 mph 64% 0.00 in 489 W/m2
14:34 24.8 °F 14.3 °F 29.90 in SW 6.0 mph 7.0 mph 64% 0.00 in 482 W/m2
14:39 24.9 °F 14.4 °F 29.90 in SW 5.0 mph 7.0 mph 64% 0.00 in 473 W/m2
14:44 24.9 °F 14.4 °F 29.90 in SW 6.0 mph 7.0 mph 64% 0.00 in 466 W/m2
14:49 25.3 °F 14.8 °F 29.90 in SW 5.0 mph 7.0 mph 64% 0.00 in 455 W/m2
14:54 25.6 °F 15.1 °F 29.90 in SW 6.0 mph 7.0 mph 64% 0.00 in 450 W/m2
14:59 26.3 °F 15.0 °F 29.90 in SW 5.0 mph 7.0 mph 62% 0.00 in 443 W/m2
15:04 26.6 °F 14.9 °F 29.90 in SW 4.0 mph 8.0 mph 61% 0.00 in 436 W/m2
15:09 26.8 °F 14.8 °F 29.89 in SSW 5.0 mph 8.0 mph 60% 0.00 in 418 W/m2
15:14 26.8 °F 15.1 °F 29.89 in WSW 3.0 mph 8.0 mph 61% 0.00 in 415 W/m2
15:19 27.0 °F 15.3 °F 29.89 in WSW 4.0 mph 7.0 mph 61% 0.00 in 404 W/m2
15:25 27.0 °F 15.3 °F 29.88 in SW 5.0 mph 7.0 mph 61% 0.00 in 396 W/m2
15:30 27.4 °F 15.7 °F 29.88 in SW 4.0 mph 7.0 mph 61% 0.00 in 383 W/m2
15:35 27.5 °F 15.8 °F 29.88 in WSW 5.0 mph 7.0 mph 61% 0.00 in 373 W/m2
15:40 27.5 °F 15.8 °F 29.89 in WSW 5.0 mph 7.0 mph 61% 0.00 in 364 W/m2
15:45 27.5 °F 15.8 °F 29.88 in SW 4.0 mph 7.0 mph 61% 0.00 in 348 W/m2
15:50 27.7 °F 16.4 °F 29.88 in WSW 5.0 mph 7.0 mph 62% 0.00 in 339 W/m2
15:55 28.0 °F 16.3 °F 29.88 in WSW 5.0 mph 8.0 mph 61% 0.00 in 325 W/m2
16:00 28.2 °F 16.5 °F 29.88 in WSW 6.0 mph 8.0 mph 61% 0.00 in 313 W/m2
16:05 28.5 °F 16.4 °F 29.88 in SW 7.0 mph 8.0 mph 60% 0.00 in 299 W/m2
16:10 28.7 °F 16.6 °F 29.88 in WSW 6.0 mph 9.0 mph 60% 0.00 in 283 W/m2
16:15 28.9 °F 16.7 °F 29.88 in WSW 7.0 mph 9.0 mph 60% 0.00 in 267 W/m2
16:20 29.0 °F 16.8 °F 29.88 in WSW 7.0 mph 8.0 mph 60% 0.00 in 257 W/m2
16:25 29.1 °F 16.9 °F 29.88 in West 7.0 mph 8.0 mph 60% 0.00 in 241 W/m2
16:30 29.2 °F 17.0 °F 29.88 in West 6.0 mph 8.0 mph 60% 0.00 in 214 W/m2
16:35 29.0 °F 16.8 °F 29.88 in West 6.0 mph 9.0 mph 60% 0.00 in 204 W/m2
16:40 28.9 °F 17.1 °F 29.87 in West 7.0 mph 9.0 mph 61% 0.00 in 190 W/m2
16:45 28.9 °F 17.1 °F 29.87 in WSW 6.0 mph 9.0 mph 61% 0.00 in 171 W/m2
16:50 29.0 °F 17.2 °F 29.87 in WSW 6.0 mph 8.0 mph 61% 0.00 in 153 W/m2
16:55 29.1 °F 17.3 °F 29.87 in West 6.0 mph 8.0 mph 61% 0.00 in 127 W/m2
17:00 29.1 °F 17.3 °F 29.87 in WSW 7.0 mph 8.0 mph 61% 0.00 in 123 W/m2
17:05 29.0 °F 17.6 °F 29.87 in WSW 6.0 mph 8.0 mph 62% 0.00 in 102 W/m2
17:10 28.9 °F 17.5 °F 29.87 in WSW 8.0 mph 9.0 mph 62% 0.00 in 79 W/m2
17:15 28.8 °F 17.4 °F 29.87 in WSW 6.0 mph 9.0 mph 62% 0.00 in 44 W/m2
17:20 28.4 °F 17.0 °F 29.87 in WSW 7.0 mph 8.0 mph 62% 0.00 in 39 W/m2
17:25 28.4 °F 17.4 °F 29.87 in WSW 5.0 mph 8.0 mph 63% 0.00 in 39 W/m2
17:30 28.4 °F 17.0 °F 29.87 in WSW 5.0 mph 8.0 mph 62% 0.00 in 37 W/m2
17:35 28.4 °F 17.0 °F 29.86 in WSW 7.0 mph 8.0 mph 62% 0.00 in 32 W/m2
17:40 28.4 °F 17.4 °F 29.86 in WSW 4.0 mph 8.0 mph 63% 0.00 in 28 W/m2
17:45 28.1 °F 17.1 °F 29.86 in WSW 4.0 mph 7.0 mph 63% 0.00 in 28 W/m2
17:50 27.8 °F 16.8 °F 29.86 in West 3.0 mph 8.0 mph 63% 0.00 in 23 W/m2
17:55 27.7 °F 16.7 °F 29.86 in Calm   8.0 mph 63% 0.00 in 18 W/m2
18:00 27.4 °F 16.8 °F 29.86 in WSW 5.0 mph 6.0 mph 64% 0.00 in 14 W/m2
18:05 27.2 °F 16.6 °F 29.86 in SW 2.0 mph 7.0 mph 64% 0.00 in 9 W/m2
18:10 26.7 °F 16.1 °F 29.86 in WSW 5.0 mph 7.0 mph 64% 0.00 in 5 W/m2
18:15 26.7 °F 16.5 °F 29.86 in SW 4.0 mph 6.0 mph 65% 0.00 in 0 W/m2
18:20 27.0 °F 16.8 °F 29.86 in WSW 4.0 mph 6.0 mph 65% 0.00 in 0 W/m2
18:25 27.2 °F 16.6 °F 29.86 in SW 5.0 mph 6.0 mph 64% 0.00 in 0 W/m2
18:30 26.9 °F 16.7 °F 29.86 in WSW 6.0 mph 6.0 mph 65% 0.00 in 0 W/m2
18:35 26.8 °F 16.6 °F 29.86 in WSW 4.0 mph 7.0 mph 65% 0.00 in 0 W/m2
18:40 26.4 °F 16.6 °F 29.86 in SW 4.0 mph 7.0 mph 66% 0.00 in 0 W/m2
18:45 26.5 °F 16.7 °F 29.86 in SW 3.0 mph 7.0 mph 66% 0.00 in 0 W/m2
18:50 26.8 °F 17.0 °F 29.86 in SW 5.0 mph 8.0 mph 66% 0.00 in 0 W/m2
18:55 27.0 °F 17.1 °F 29.86 in SW 5.0 mph 8.0 mph 66% 0.00 in 0 W/m2
19:00 27.1 °F 17.2 °F 29.86 in WSW 5.0 mph 8.0 mph 66% 0.00 in 0 W/m2
19:05 26.9 °F 17.0 °F 29.86 in WSW 4.0 mph 8.0 mph 66% 0.00 in 0 W/m2
19:10 26.8 °F 17.0 °F 29.86 in SW 4.0 mph 7.0 mph 66% 0.00 in 0 W/m2
19:15 26.8 °F 17.0 °F 29.85 in WSW 5.0 mph 8.0 mph 66% 0.00 in 0 W/m2
19:20 26.8 °F 17.0 °F 29.85 in WSW 5.0 mph 8.0 mph 66% 0.00 in 0 W/m2
19:25 26.8 °F 17.0 °F 29.84 in WSW 5.0 mph 8.0 mph 66% 0.00 in 0 W/m2
19:30 26.8 °F 17.0 °F 29.84 in WSW 5.0 mph 8.0 mph 66% 0.00 in 0 W/m2
19:35 26.6 °F 16.8 °F 29.84 in WSW 5.0 mph 7.0 mph 66% 0.00 in 0 W/m2
19:40 26.1 °F 16.3 °F 29.85 in West 5.0 mph 6.0 mph 66% 0.00 in 0 W/m2
19:45 25.4 °F 16.0 °F 29.85 in SW 2.0 mph 6.0 mph 67% 0.00 in 0 W/m2
19:50 25.2 °F 16.1 °F 29.85 in WSW 3.0 mph 5.0 mph 68% 0.00 in 0 W/m2
19:55 25.0 °F 16.3 °F 29.85 in Calm   5.0 mph 69% 0.00 in 0 W/m2
20:00 24.8 °F 16.1 °F 29.85 in Calm   4.0 mph 69% 0.00 in 0 W/m2
20:05 24.7 °F 16.0 °F 29.84 in WSW 5.0 mph 5.0 mph 69% 0.00 in 0 W/m2
20:10 24.7 °F 16.0 °F 29.83 in WSW 6.0 mph 7.0 mph 69% 0.00 in 0 W/m2
20:15 24.6 °F 15.9 °F 29.83 in WSW 7.0 mph 7.0 mph 69% 0.00 in 0 W/m2
20:20 24.2 °F 15.8 °F 29.83 in WSW 7.0 mph 7.0 mph 70% 0.00 in 0 W/m2
20:25 24.0 °F 15.6 °F 29.83 in WSW 6.0 mph 7.0 mph 70% 0.00 in 0 W/m2
20:30 24.3 °F 16.2 °F 29.83 in WSW 4.0 mph 7.0 mph 71% 0.00 in 0 W/m2
20:35 24.3 °F 16.2 °F 29.83 in WSW 5.0 mph 7.0 mph 71% 0.00 in 0 W/m2
20:40 24.4 °F 16.3 °F 29.83 in WSW 5.0 mph 7.0 mph 71% 0.00 in 0 W/m2
20:45 24.4 °F 16.3 °F 29.83 in WSW 4.0 mph 7.0 mph 71% 0.00 in 0 W/m2
20:50 24.8 °F 16.4 °F 29.83 in WSW 6.0 mph 8.0 mph 70% 0.00 in 0 W/m2
20:55 24.9 °F 16.5 °F 29.82 in WSW 5.0 mph 8.0 mph 70% 0.00 in 0 W/m2
21:00 25.0 °F 16.6 °F 29.82 in WSW 4.0 mph 8.0 mph 70% 0.00 in 0 W/m2
21:05 25.1 °F 16.4 °F 29.82 in WSW 7.0 mph 8.0 mph 69% 0.00 in 0 W/m2
21:10 24.9 °F 16.2 °F 29.82 in WSW 7.0 mph 8.0 mph 69% 0.00 in 0 W/m2
21:15 24.8 °F 16.1 °F 29.82 in WSW 7.0 mph 7.0 mph 69% 0.00 in 0 W/m2
21:20 25.0 °F 16.3 °F 29.83 in West 5.0 mph 8.0 mph 69% 0.00 in 0 W/m2
21:25 24.9 °F 16.2 °F 29.83 in West 6.0 mph 8.0 mph 69% 0.00 in 0 W/m2
21:30 24.9 °F 16.2 °F 29.82 in WSW 5.0 mph 8.0 mph 69% 0.00 in 0 W/m2
21:35 24.8 °F 16.1 °F 29.82 in West 6.0 mph 8.0 mph 69% 0.00 in 0 W/m2
21:40 24.7 °F 16.0 °F 29.82 in WSW 5.0 mph 7.0 mph 69% 0.00 in 0 W/m2
21:45 24.6 °F 16.2 °F 29.82 in WSW 6.0 mph 7.0 mph 70% 0.00 in 0 W/m2
21:50 24.7 °F 16.0 °F 29.82 in West 6.0 mph 7.0 mph 69% 0.00 in 0 W/m2
21:55 24.3 °F 15.9 °F 29.82 in WSW 6.0 mph 7.0 mph 70% 0.00 in 0 W/m2
22:00 24.5 °F 16.1 °F 29.82 in WSW 6.0 mph 8.0 mph 70% 0.00 in 0 W/m2
22:05 24.4 °F 16.0 °F 29.82 in WSW 6.0 mph 8.0 mph 70% 0.00 in 0 W/m2
22:10 23.9 °F 15.5 °F 29.82 in WSW 6.0 mph 7.0 mph 70% 0.00 in 0 W/m2
22:15 23.4 °F 15.4 °F 29.82 in West 4.0 mph 7.0 mph 71% 0.00 in 0 W/m2
22:20 23.2 °F 15.5 °F 29.82 in West 5.0 mph 7.0 mph 72% 0.00 in 0 W/m2
22:25 23.3 °F 15.6 °F 29.82 in WSW 7.0 mph 7.0 mph 72% 0.00 in 0 W/m2
22:30 23.6 °F 15.6 °F 29.81 in WSW 5.0 mph 7.0 mph 71% 0.00 in 0 W/m2
22:35 24.0 °F 16.0 °F 29.81 in West 6.0 mph 8.0 mph 71% 0.00 in 0 W/m2
22:40 24.4 °F 16.0 °F 29.81 in West 6.0 mph 8.0 mph 70% 0.00 in 0 W/m2
22:45 24.4 °F 15.7 °F 29.80 in West 5.0 mph 8.0 mph 69% 0.00 in 0 W/m2
22:50 24.0 °F 15.6 °F 29.80 in West 4.0 mph 7.0 mph 70% 0.00 in 0 W/m2
22:55 24.1 °F 15.7 °F 29.80 in West 5.0 mph 7.0 mph 70% 0.00 in 0 W/m2
23:00 23.7 °F 15.3 °F 29.80 in West 5.0 mph 7.0 mph 70% 0.00 in 0 W/m2
23:05 23.2 °F 14.9 °F 29.80 in WSW 4.0 mph 7.0 mph 70% 0.00 in 0 W/m2
23:10 23.0 °F 15.0 °F 29.80 in WSW 4.0 mph 7.0 mph 71% 0.00 in 0 W/m2
23:11 23.0 °F 15.0 °F 29.80 in WSW 5.0 mph 7.0 mph 71% 0.00 in 0 W/m2
23:16 22.7 °F 14.7 °F 29.80 in West 5.0 mph 7.0 mph 71% 0.00 in 0 W/m2
23:21 22.7 °F 15.0 °F 29.80 in WSW 4.0 mph 7.0 mph 72% 0.00 in 0 W/m2
23:26 22.6 °F 14.9 °F 29.80 in WSW 4.0 mph 6.0 mph 72% 0.00 in 0 W/m2
23:31 23.0 °F 15.3 °F 29.80 in SW 3.0 mph 6.0 mph 72% 0.00 in 0 W/m2
23:36 23.3 °F 15.3 °F 29.80 in WSW 4.0 mph 6.0 mph 71% 0.00 in 0 W/m2
23:41 23.5 °F 15.5 °F 29.80 in Calm   6.0 mph 71% 0.00 in 0 W/m2
23:46 23.5 °F 15.5 °F 29.80 in Calm   5.0 mph 71% 0.00 in 0 W/m2
23:51 23.8 °F 15.8 °F 29.80 in WSW 4.0 mph 5.0 mph 71% 0.00 in 0 W/m2
23:56 24.2 °F 15.8 °F 29.80 in SW 3.0 mph 6.0 mph 70% 0.00 in 0 W/m2
Bismarck, North Dakota, USA
Compliments of Weather Underground - 4 mb